createdAt,value
2022-10-07T00:00:43.776Z,20.77
2022-10-07T00:03:10.541Z,31.40
2022-10-07T00:05:37.007Z,20.25
2022-10-07T00:08:03.728Z,19.08
2022-10-07T00:10:30.193Z,18.02
2022-10-07T00:12:57.101Z,20.27
2022-10-07T00:15:23.726Z,24.63
2022-10-07T00:17:50.199Z,21.10
2022-10-07T00:20:16.742Z,22.83
2022-10-07T00:22:43.630Z,25.35
2022-10-07T00:25:10.221Z,19.98
2022-10-07T00:27:37.193Z,21.20
2022-10-07T00:30:04.214Z,17.50
2022-10-07T00:32:30.704Z,17.80
2022-10-07T00:34:57.529Z,24.02
2022-10-07T00:37:24.028Z,17.25
2022-10-07T00:39:50.534Z,21.40
2022-10-07T00:42:17.998Z,22.40
2022-10-07T00:44:45.595Z,22.65
2022-10-07T00:47:21.037Z,20.38
2022-10-07T00:49:57.027Z,24.20
2022-10-07T00:52:28.256Z,15.68
2022-10-07T00:54:57.172Z,24.42
2022-10-07T00:57:26.657Z,19.50
2022-10-07T00:59:55.534Z,28.52
2022-10-07T01:02:25.081Z,23.40
2022-10-07T01:04:53.411Z,19.20
2022-10-07T01:07:21.711Z,20.08
2022-10-07T01:09:51.374Z,20.23
2022-10-07T01:12:59.531Z,20.83
2022-10-07T01:15:36.356Z,18.90
2022-10-07T01:18:08.694Z,21.65
2022-10-07T01:20:45.190Z,26.70
2022-10-07T01:23:32.685Z,20.60
2022-10-07T01:26:14.213Z,20.92
2022-10-07T01:28:51.825Z,19.27
2022-10-07T01:31:24.963Z,32.85
2022-10-07T01:33:53.532Z,19.52
2022-10-07T01:36:23.806Z,19.00
2022-10-07T01:39:02.701Z,18.00
2022-10-07T01:41:31.510Z,23.05
2022-10-07T01:44:01.071Z,17.25
2022-10-07T01:46:28.541Z,15.85
2022-10-07T01:48:56.102Z,25.67
2022-10-07T01:51:25.955Z,17.45
2022-10-07T01:54:04.201Z,21.60
2022-10-07T01:57:04.634Z,18.92
2022-10-07T01:59:53.119Z,15.25
2022-10-07T02:02:38.134Z,21.83
2022-10-07T02:05:26.404Z,19.35
2022-10-07T02:07:55.912Z,17.08
2022-10-07T02:10:40.047Z,16.63
2022-10-07T02:13:17.772Z,18.20
2022-10-07T02:16:18.879Z,19.35
2022-10-07T02:18:50.132Z,18.90
2022-10-07T02:21:21.163Z,19.50
2022-10-07T02:23:49.388Z,16.50
2022-10-07T02:26:21.087Z,16.92
2022-10-07T02:28:52.255Z,20.50
2022-10-07T02:31:23.864Z,16.70
2022-10-07T02:33:54.003Z,20.48
2022-10-07T02:36:35.931Z,16.33
2022-10-07T02:39:03.694Z,14.75
2022-10-07T02:41:51.089Z,14.32
2022-10-07T02:44:29.026Z,17.90
2022-10-07T02:47:04.294Z,16.17
2022-10-07T02:49:33.796Z,18.73
2022-10-07T02:52:05.482Z,20.20
2022-10-07T02:54:42.695Z,15.27
2022-10-07T02:57:12.240Z,22.45
2022-10-07T02:59:40.442Z,17.38
2022-10-07T03:02:12.254Z,17.35
2022-10-07T03:04:38.888Z,13.60
2022-10-07T03:07:05.452Z,18.50
2022-10-07T03:09:32.165Z,20.48
2022-10-07T03:11:58.662Z,16.90
2022-10-07T03:14:25.314Z,14.30
2022-10-07T03:16:52.785Z,17.17
2022-10-07T03:19:19.472Z,17.77
2022-10-07T03:21:46.037Z,19.88
2022-10-07T03:24:12.690Z,20.92
2022-10-07T03:26:39.750Z,16.13
2022-10-07T03:29:08.293Z,14.15
2022-10-07T03:31:35.338Z,14.38
2022-10-07T03:34:01.917Z,18.67
2022-10-07T03:36:28.792Z,18.50
2022-10-07T03:38:55.965Z,17.35
2022-10-07T03:41:22.528Z,16.20
2022-10-07T03:43:49.028Z,18.25
2022-10-07T03:46:16.738Z,17.33
2022-10-07T03:48:43.274Z,15.35
2022-10-07T03:51:09.816Z,15.85
2022-10-07T03:53:38.891Z,15.45
2022-10-07T03:56:05.567Z,14.00
2022-10-07T03:58:32.082Z,21.30
2022-10-07T04:01:10.272Z,20.50
2022-10-07T04:03:37.324Z,18.80
2022-10-07T04:06:03.995Z,14.45
2022-10-07T04:08:32.880Z,23.83
2022-10-07T04:11:00.719Z,16.83
2022-10-07T04:13:27.756Z,24.77
2022-10-07T04:15:54.890Z,13.85
2022-10-07T04:18:22.036Z,15.63
2022-10-07T04:20:48.680Z,21.65
2022-10-07T04:23:16.463Z,16.67
2022-10-07T04:25:44.458Z,24.10
2022-10-07T04:28:24.249Z,15.13
2022-10-07T04:30:53.988Z,20.23
2022-10-07T04:33:23.922Z,22.42
2022-10-07T04:35:51.346Z,15.77
2022-10-07T04:38:18.857Z,19.50
2022-10-07T04:40:48.124Z,14.15
2022-10-07T04:43:26.962Z,16.25
2022-10-07T04:46:00.046Z,20.73
2022-10-07T04:48:27.165Z,17.42
2022-10-07T04:50:53.771Z,16.92
2022-10-07T04:53:21.047Z,17.23
2022-10-07T04:55:51.758Z,15.32
2022-10-07T04:58:19.210Z,20.42
2022-10-07T05:00:51.912Z,15.73
2022-10-07T05:03:20.493Z,18.40
2022-10-07T05:05:49.968Z,20.23
2022-10-07T05:08:18.171Z,19.42
2022-10-07T05:10:45.004Z,18.10
2022-10-07T05:13:14.356Z,17.08
2022-10-07T05:15:57.454Z,13.55
2022-10-07T05:18:26.419Z,22.17
2022-10-07T05:20:53.876Z,18.10
2022-10-07T05:23:28.044Z,16.52
2022-10-07T05:26:04.579Z,22.00
2022-10-07T05:28:31.287Z,24.98
2022-10-07T05:31:09.269Z,23.50
2022-10-07T05:33:35.898Z,16.95
2022-10-07T05:36:03.051Z,21.30
2022-10-07T05:38:29.700Z,15.80
2022-10-07T05:41:00.652Z,16.88
2022-10-07T05:43:28.966Z,15.65
2022-10-07T05:46:03.913Z,18.90
2022-10-07T05:48:36.610Z,28.33
2022-10-07T05:51:06.174Z,18.92
2022-10-07T05:53:32.720Z,21.45
2022-10-07T05:55:59.221Z,13.55
2022-10-07T05:58:25.750Z,21.02
2022-10-07T06:00:54.542Z,15.68
2022-10-07T06:03:22.300Z,17.35
2022-10-07T06:05:50.869Z,25.58
2022-10-07T06:08:19.344Z,16.95
2022-10-07T06:11:05.535Z,22.08
2022-10-07T06:13:32.635Z,23.25
2022-10-07T06:16:08.081Z,19.30
2022-10-07T06:18:38.328Z,27.17
2022-10-07T06:21:05.928Z,23.80
2022-10-07T06:23:33.429Z,25.88
2022-10-07T06:26:01.326Z,20.23
2022-10-07T06:28:32.618Z,19.25
2022-10-07T06:30:59.547Z,21.52
2022-10-07T06:33:26.206Z,23.48
2022-10-07T06:35:59.791Z,22.83
2022-10-07T06:38:28.831Z,13.45
2022-10-07T06:40:59.521Z,15.82
2022-10-07T06:43:26.708Z,14.25
2022-10-07T06:45:56.153Z,16.05
2022-10-07T06:48:23.068Z,22.65
2022-10-07T06:50:53.381Z,16.67
2022-10-07T06:53:20.196Z,19.80
2022-10-07T06:55:47.241Z,17.27
2022-10-07T06:58:13.717Z,16.70
2022-10-07T07:00:40.364Z,17.92
2022-10-07T07:03:06.993Z,14.35
2022-10-07T07:05:41.493Z,17.90
2022-10-07T07:08:11.837Z,16.42
2022-10-07T07:10:40.378Z,17.42
2022-10-07T07:13:07.641Z,16.67
2022-10-07T07:15:34.921Z,14.45
2022-10-07T07:18:02.083Z,14.50
2022-10-07T07:20:35.119Z,21.77
2022-10-07T07:23:02.305Z,22.67
2022-10-07T07:25:29.022Z,22.20
2022-10-07T07:27:57.881Z,18.52
2022-10-07T07:30:24.963Z,16.60
2022-10-07T07:32:51.587Z,15.45
2022-10-07T07:35:18.345Z,17.95
2022-10-07T07:37:46.131Z,15.75
2022-10-07T07:40:13.014Z,14.20
2022-10-07T07:42:39.625Z,23.83
2022-10-07T07:45:06.635Z,13.10
2022-10-07T07:47:35.541Z,11.93
2022-10-07T07:50:03.832Z,14.35
2022-10-07T07:52:30.327Z,10.80
2022-10-07T07:54:58.985Z,16.20
2022-10-07T07:57:27.234Z,17.75
2022-10-07T07:59:55.170Z,17.48
2022-10-07T08:02:23.499Z,11.80
2022-10-07T08:04:50.922Z,15.57
2022-10-07T08:07:17.475Z,12.35
2022-10-07T08:09:44.050Z,11.32
2022-10-07T08:12:11.518Z,13.50
2022-10-07T08:14:38.933Z,12.27
2022-10-07T08:17:05.425Z,12.85
2022-10-07T08:19:32.300Z,14.85
2022-10-07T08:21:59.043Z,12.93
2022-10-07T08:24:25.830Z,14.32
2022-10-07T08:26:53.679Z,20.73
2022-10-07T08:29:21.576Z,17.73
2022-10-07T08:31:48.905Z,13.50
2022-10-07T08:34:15.694Z,18.17
2022-10-07T08:36:47.040Z,8.32
2022-10-07T08:39:14.887Z,14.93
2022-10-07T08:41:49.200Z,10.25
2022-10-07T08:46:54.465Z,12.10
2022-10-07T08:49:30.742Z,15.35
2022-10-07T08:52:19.159Z,9.23
2022-10-07T08:54:45.654Z,19.08
2022-10-07T08:57:44.649Z,15.27
2022-10-07T09:00:15.203Z,15.60
2022-10-07T09:02:56.606Z,9.15
2022-10-07T09:05:28.260Z,10.38
2022-10-07T09:07:59.541Z,9.98
2022-10-07T09:10:37.432Z,14.05
2022-10-07T09:13:12.594Z,11.88
2022-10-07T09:15:49.378Z,17.30
2022-10-07T09:18:28.421Z,11.18
2022-10-07T09:20:56.466Z,15.15
2022-10-07T09:23:34.623Z,8.98
2022-10-07T09:26:01.719Z,10.90
2022-10-07T09:28:30.624Z,8.60
2022-10-07T09:31:00.848Z,9.98
2022-10-07T09:33:29.857Z,9.07
2022-10-07T09:36:06.740Z,9.25
2022-10-07T09:38:44.377Z,8.13
2022-10-07T09:41:16.857Z,14.98
2022-10-07T09:43:56.702Z,6.03
2022-10-07T09:46:39.113Z,11.32
2022-10-07T09:49:06.093Z,7.30
2022-10-07T09:51:35.208Z,12.23
2022-10-07T09:54:04.526Z,7.68
2022-10-07T09:56:36.649Z,7.53
2022-10-07T09:59:24.211Z,12.65
2022-10-07T10:02:14.397Z,8.60
2022-10-07T10:04:53.125Z,10.15
2022-10-07T10:07:36.550Z,11.10
2022-10-07T10:10:18.035Z,11.77
2022-10-07T10:12:52.904Z,8.75
2022-10-07T10:15:30.636Z,6.47
2022-10-07T10:17:58.548Z,6.72
2022-10-07T10:20:44.622Z,6.75
2022-10-07T10:23:34.549Z,10.77
2022-10-07T10:26:28.291Z,4.38
2022-10-07T10:29:08.143Z,7.30
2022-10-07T10:32:00.671Z,8.25
2022-10-07T10:35:01.954Z,7.72
2022-10-07T10:37:42.021Z,8.52
2022-10-07T10:40:14.314Z,4.53
2022-10-07T10:43:17.864Z,5.90
2022-10-07T10:45:49.556Z,5.05
2022-10-07T10:48:32.920Z,8.88
2022-10-07T10:51:39.976Z,7.47
2022-10-07T10:54:31.577Z,7.97
2022-10-07T10:57:17.084Z,4.78
2022-10-07T11:00:01.816Z,7.38
2022-10-07T11:02:37.515Z,6.40
2022-10-07T11:05:22.800Z,11.30
2022-10-07T11:07:55.419Z,7.45
2022-10-07T11:10:24.291Z,5.25
2022-10-07T11:12:59.129Z,13.38
2022-10-07T11:15:34.360Z,4.50
2022-10-07T11:18:23.015Z,8.75
2022-10-07T11:20:50.890Z,10.23
2022-10-07T11:23:32.207Z,7.13
2022-10-07T11:26:13.110Z,7.97
2022-10-07T11:28:43.042Z,6.47
2022-10-07T11:31:12.233Z,12.05
2022-10-07T11:33:49.256Z,4.38
2022-10-07T11:36:32.564Z,7.30
2022-10-07T11:38:59.143Z,5.95
2022-10-07T11:41:33.391Z,7.53
2022-10-07T11:44:16.206Z,7.03
2022-10-07T11:46:45.625Z,6.60
2022-10-07T11:49:24.710Z,3.47
2022-10-07T11:52:08.382Z,5.65
2022-10-07T11:54:53.264Z,10.30
2022-10-07T11:57:24.558Z,7.95
2022-10-07T11:59:58.562Z,8.75
2022-10-07T12:02:28.074Z,7.28
2022-10-07T12:04:59.624Z,7.60
2022-10-07T12:07:32.213Z,6.13
2022-10-07T12:10:04.934Z,10.32
2022-10-07T12:12:47.425Z,4.43
2022-10-07T12:15:29.442Z,8.75
2022-10-07T12:18:18.913Z,5.28
2022-10-07T12:20:52.569Z,7.53
2022-10-07T12:23:19.265Z,7.82
2022-10-07T12:25:50.410Z,6.82
2022-10-07T12:28:26.254Z,4.72
2022-10-07T12:30:55.930Z,8.75
2022-10-07T12:33:33.154Z,9.38
2022-10-07T12:36:22.409Z,3.78
2022-10-07T12:39:01.012Z,4.78
2022-10-07T12:41:38.840Z,6.80
2022-10-07T12:44:25.045Z,8.85
2022-10-07T12:46:53.191Z,10.60
2022-10-07T12:49:31.688Z,7.43
2022-10-07T12:52:04.528Z,11.20
2022-10-07T12:54:37.636Z,10.45
2022-10-07T12:57:12.065Z,8.85
2022-10-07T13:00:05.647Z,11.10
2022-10-07T13:03:09.653Z,9.80
2022-10-07T13:05:54.991Z,3.22
2022-10-07T13:08:30.607Z,6.68
2022-10-07T13:11:15.931Z,4.93
2022-10-07T13:13:53.781Z,7.30
2022-10-07T13:16:23.822Z,12.95
2022-10-07T13:19:15.458Z,13.05
2022-10-07T13:21:51.083Z,6.78
2022-10-07T13:24:24.432Z,7.70
2022-10-07T13:26:52.254Z,8.25
2022-10-07T13:29:26.190Z,11.90
2022-10-07T13:32:32.157Z,6.38
2022-10-07T13:35:01.288Z,7.90
2022-10-07T13:37:35.370Z,13.00
2022-10-07T13:42:56.725Z,10.05
2022-10-07T13:45:23.602Z,6.85
2022-10-07T13:47:50.413Z,9.60
2022-10-07T13:50:20.951Z,13.93
2022-10-07T13:52:49.751Z,11.95
2022-10-07T13:55:35.910Z,10.25
2022-10-07T13:58:05.426Z,10.27
2022-10-07T14:00:33.962Z,6.32
2022-10-07T14:03:01.913Z,7.57
2022-10-07T14:05:31.423Z,6.90
2022-10-07T14:08:16.226Z,4.53
2022-10-07T14:10:56.296Z,11.57
2022-10-07T14:13:22.979Z,12.68
2022-10-07T14:15:55.860Z,15.02
2022-10-07T14:18:23.387Z,12.43
2022-10-07T14:20:55.293Z,8.93
2022-10-07T14:23:28.318Z,14.02
2022-10-07T14:25:57.746Z,12.48
2022-10-07T14:28:24.263Z,7.95
2022-10-07T14:31:27.911Z,9.30
2022-10-07T14:34:35.713Z,14.35
2022-10-07T14:37:08.100Z,10.80
2022-10-07T14:39:38.609Z,10.05
2022-10-07T14:42:10.814Z,10.27
2022-10-07T14:44:37.604Z,7.38
2022-10-07T14:47:06.078Z,9.40
2022-10-07T14:49:33.029Z,13.32
2022-10-07T14:52:00.684Z,6.45
2022-10-07T14:54:27.509Z,9.35
2022-10-07T14:56:53.999Z,9.88
2022-10-07T14:59:20.785Z,9.57
2022-10-07T15:01:48.026Z,8.52
2022-10-07T15:04:15.910Z,8.13
2022-10-07T15:06:45.379Z,9.35
2022-10-07T15:09:16.509Z,10.48
2022-10-07T15:11:44.480Z,11.95
2022-10-07T15:14:12.172Z,11.68
2022-10-07T15:16:39.298Z,11.38
2022-10-07T15:19:05.912Z,7.20
2022-10-07T15:21:32.456Z,9.35
2022-10-07T15:24:01.705Z,8.52
2022-10-07T15:26:28.657Z,11.45
2022-10-07T15:28:57.466Z,7.05
2022-10-07T15:31:27.386Z,6.63
2022-10-07T15:33:57.227Z,6.88
2022-10-07T15:36:29.016Z,9.32
2022-10-07T15:38:56.127Z,6.03
2022-10-07T15:41:39.898Z,4.68
2022-10-07T15:44:11.981Z,11.07
2022-10-07T15:46:38.566Z,7.90
2022-10-07T15:49:05.663Z,3.90
2022-10-07T15:51:32.206Z,7.82
2022-10-07T15:53:59.223Z,7.75
2022-10-07T15:56:25.725Z,7.22
2022-10-07T15:58:53.179Z,11.73
2022-10-07T16:01:20.837Z,9.63
2022-10-07T16:03:49.508Z,9.15
2022-10-07T16:06:21.809Z,5.20
2022-10-07T16:08:49.938Z,5.22
2022-10-07T16:11:17.755Z,10.15
2022-10-07T16:13:47.300Z,5.63
2022-10-07T16:16:17.540Z,3.47
2022-10-07T16:18:46.132Z,7.38
2022-10-07T16:21:15.194Z,12.93
2022-10-07T16:23:45.815Z,9.85
2022-10-07T16:26:17.990Z,10.20
2022-10-07T16:29:05.032Z,10.20
2022-10-07T16:31:33.160Z,6.30
2022-10-07T16:33:59.784Z,13.52
2022-10-07T16:36:27.008Z,4.75
2022-10-07T16:38:54.338Z,6.30
2022-10-07T16:41:21.444Z,9.82
2022-10-07T16:43:48.103Z,7.95
2022-10-07T16:46:20.730Z,11.18
2022-10-07T16:48:49.580Z,6.70
2022-10-07T16:51:21.983Z,8.90
2022-10-07T16:53:50.659Z,9.40
2022-10-07T16:56:19.763Z,7.95
2022-10-07T16:58:47.054Z,9.57
2022-10-07T17:01:17.239Z,8.10
2022-10-07T17:03:46.907Z,8.90
2022-10-07T17:06:15.027Z,14.88
2022-10-07T17:08:46.269Z,8.25
2022-10-07T17:11:29.807Z,6.57
2022-10-07T17:13:57.846Z,9.77
2022-10-07T17:16:25.824Z,12.95
2022-10-07T17:18:52.621Z,5.97
2022-10-07T17:21:20.020Z,4.03
2022-10-07T17:23:47.809Z,8.20
2022-10-07T17:26:18.052Z,5.15
2022-10-07T17:28:44.874Z,8.00
2022-10-07T17:31:13.453Z,8.18
2022-10-07T17:33:42.357Z,7.50
2022-10-07T17:36:10.675Z,5.90
2022-10-07T17:38:41.140Z,9.30
2022-10-07T17:41:15.844Z,6.55
2022-10-07T17:43:42.490Z,4.90
2022-10-07T17:46:12.912Z,14.65
2022-10-07T17:48:48.218Z,5.03
2022-10-07T17:51:16.515Z,6.53
2022-10-07T17:53:43.324Z,11.27
2022-10-07T17:56:11.936Z,8.60
2022-10-07T17:58:40.327Z,8.73
2022-10-07T18:01:16.054Z,5.85
2022-10-07T18:03:43.521Z,13.38
2022-10-07T18:06:11.558Z,8.77
2022-10-07T18:08:41.721Z,7.20
2022-10-07T18:11:09.275Z,9.77
2022-10-07T18:13:54.545Z,10.13
2022-10-07T18:16:22.094Z,3.28
2022-10-07T18:18:54.886Z,3.92
2022-10-07T18:21:22.517Z,6.00
2022-10-07T18:23:53.009Z,5.88
2022-10-07T18:26:19.512Z,9.43
2022-10-07T18:28:46.803Z,8.63
2022-10-07T18:31:16.163Z,7.35
2022-10-07T18:33:43.299Z,8.55
2022-10-07T18:36:13.112Z,9.68
2022-10-07T18:38:41.723Z,7.75
2022-10-07T18:41:11.236Z,9.10
2022-10-07T18:43:38.160Z,6.20
2022-10-07T18:46:11.060Z,8.48
2022-10-07T18:48:41.710Z,3.38
2022-10-07T18:51:10.494Z,7.28
2022-10-07T18:53:38.891Z,5.05
2022-10-07T18:56:08.198Z,6.15
2022-10-07T18:58:40.602Z,11.20
2022-10-07T19:01:08.240Z,6.38
2022-10-07T19:03:35.030Z,8.30
2022-10-07T19:06:10.488Z,8.70
2022-10-07T19:08:37.472Z,5.35
2022-10-07T19:11:09.428Z,6.68
2022-10-07T19:13:48.523Z,13.50
2022-10-07T19:16:23.754Z,8.10
2022-10-07T19:18:55.414Z,5.07
2022-10-07T19:21:23.613Z,7.03
2022-10-07T19:23:54.648Z,8.23
2022-10-07T19:26:24.393Z,7.25
2022-10-07T19:28:54.264Z,6.00
2022-10-07T19:31:27.378Z,7.57
2022-10-07T19:34:02.563Z,8.20
2022-10-07T19:36:31.687Z,12.18
2022-10-07T19:38:58.656Z,7.95
2022-10-07T19:41:29.628Z,5.43
2022-10-07T19:43:58.219Z,6.28
2022-10-07T19:46:27.101Z,5.63
2022-10-07T19:48:57.414Z,12.05
2022-10-07T19:51:25.792Z,4.50
2022-10-07T19:53:52.990Z,3.78
2022-10-07T19:56:20.879Z,5.22
2022-10-07T19:58:52.535Z,6.60
2022-10-07T20:01:27.697Z,12.15
2022-10-07T20:03:59.277Z,10.70
2022-10-07T20:06:26.760Z,7.63
2022-10-07T20:08:54.624Z,7.60
2022-10-07T20:11:21.332Z,4.57
2022-10-07T20:13:47.974Z,12.35
2022-10-07T20:16:18.780Z,7.68
2022-10-07T20:18:51.031Z,4.38
2022-10-07T20:21:22.148Z,6.07
2022-10-07T20:23:48.862Z,8.45
2022-10-07T20:26:19.010Z,13.52
2022-10-07T20:28:47.897Z,9.55
2022-10-07T20:31:15.993Z,10.77
2022-10-07T20:33:47.962Z,5.93
2022-10-07T20:36:17.137Z,6.80
2022-10-07T20:39:02.692Z,8.07
2022-10-07T20:41:48.742Z,10.23
2022-10-07T20:44:17.064Z,5.43
2022-10-07T20:46:44.444Z,3.92
2022-10-07T20:49:25.488Z,10.07
2022-10-07T20:51:54.376Z,5.13
2022-10-07T20:54:22.707Z,9.02
2022-10-07T20:56:51.598Z,5.97
2022-10-07T20:59:18.127Z,8.00
2022-10-07T21:01:44.926Z,7.45
2022-10-07T21:04:14.226Z,7.20
2022-10-07T21:06:42.206Z,10.75
2022-10-07T21:09:09.434Z,8.88
2022-10-07T21:11:36.475Z,9.45
2022-10-07T21:14:03.024Z,4.65
2022-10-07T21:16:31.328Z,10.77
2022-10-07T21:18:58.583Z,7.05
2022-10-07T21:21:25.629Z,5.88
2022-10-07T21:23:52.897Z,11.60
2022-10-07T21:26:20.306Z,8.90
2022-10-07T21:28:48.414Z,8.95
2022-10-07T21:31:17.738Z,6.13
2022-10-07T21:33:46.610Z,5.82
2022-10-07T21:36:18.486Z,4.55
2022-10-07T21:38:46.982Z,9.38
2022-10-07T21:41:21.982Z,8.07
2022-10-07T21:43:52.647Z,12.07
2022-10-07T21:46:20.734Z,8.05
2022-10-07T21:48:47.688Z,5.68
2022-10-07T21:51:14.728Z,9.50
2022-10-07T21:53:41.211Z,9.60
2022-10-07T21:56:11.362Z,5.53
2022-10-07T21:58:38.233Z,8.13
2022-10-07T22:01:12.729Z,8.38
2022-10-07T22:03:39.287Z,6.85
2022-10-07T22:06:11.098Z,7.10
2022-10-07T22:08:39.583Z,5.25
2022-10-07T22:11:13.369Z,8.27
2022-10-07T22:13:45.902Z,8.65
2022-10-07T22:16:15.584Z,10.02
2022-10-07T22:18:44.306Z,8.52
2022-10-07T22:21:23.420Z,6.45
2022-10-07T22:23:55.237Z,11.15
2022-10-07T22:26:24.769Z,8.68
2022-10-07T22:28:52.095Z,7.22
2022-10-07T22:31:19.478Z,8.55
2022-10-07T22:33:54.173Z,9.77
2022-10-07T22:36:22.038Z,5.35
2022-10-07T22:38:49.097Z,9.68
2022-10-07T22:41:17.841Z,4.30
2022-10-07T22:43:46.420Z,11.77
2022-10-07T22:46:18.105Z,7.03
2022-10-07T22:48:48.481Z,6.25
2022-10-07T22:51:16.308Z,5.68
2022-10-07T22:53:47.927Z,6.22
2022-10-07T22:56:17.539Z,10.35
2022-10-07T22:58:50.114Z,7.28
2022-10-07T23:01:17.354Z,10.07
2022-10-07T23:03:44.569Z,8.30
2022-10-07T23:06:13.402Z,11.40
2022-10-07T23:08:40.488Z,5.28
2022-10-07T23:11:08.026Z,11.25
2022-10-07T23:13:37.087Z,8.23
2022-10-07T23:16:07.541Z,6.50
2022-10-07T23:18:34.130Z,8.20
2022-10-07T23:21:02.656Z,14.77
2022-10-07T23:23:30.151Z,8.35
2022-10-07T23:25:57.018Z,7.93
2022-10-07T23:28:25.815Z,8.93
2022-10-07T23:30:53.105Z,10.60
2022-10-07T23:33:20.292Z,9.65
2022-10-07T23:35:46.847Z,11.73
2022-10-07T23:38:13.479Z,8.30
2022-10-07T23:40:40.778Z,8.52
2022-10-07T23:43:08.419Z,6.47
2022-10-07T23:45:34.970Z,7.47
2022-10-07T23:48:01.801Z,7.20
2022-10-07T23:50:28.499Z,11.43
2022-10-07T23:52:54.989Z,6.57
2022-10-07T23:55:21.565Z,7.47
2022-10-07T23:57:48.234Z,7.38
